Time;durP1;ratioP1;P1;durP2;ratioP2;P2;SDS_P1;SDS_P2;PMS_P1;PMS_P2;Temp;Humidity;BMP_temperature;BMP_pressure;BME280_temperature;BME280_humidity;BME280_pressure;Samples;Min_cycle;Max_cycle;Signal;HPM_P1;HPM_P2
2023/11/28 00:00:09;;;;;;;;;1.00;1.00;;;;;;;;5095950;27;47537;-68
2023/11/28 00:02:35;;;;;;;;;2.00;1.00;;;;;;;;5096956;27;46806;-68
2023/11/28 00:05:00;;;;;;;;;0.00;0.00;;;;;;;;5096759;27;45380;-68
2023/11/28 00:07:25;;;;;;;;;2.67;2.00;;;;;;;;5097541;27;45352;-68
2023/11/28 00:09:50;;;;;;;;;2.00;1.50;;;;;;;;5092245;27;46481;-70
2023/11/28 00:12:16;;;;;;;;;2.00;2.00;;;;;;;;5095418;27;46503;-67
2023/11/28 00:14:41;;;;;;;;;6.67;2.00;;;;;;;;5088947;27;45483;-70
2023/11/28 00:17:07;;;;;;;;;5.00;1.00;;;;;;;;5096036;27;45462;-70
2023/11/28 00:19:32;;;;;;;;;1.00;1.00;;;;;;;;5096281;27;45663;-69
2023/11/28 00:21:57;;;;;;;;;2.00;2.00;;;;;;;;5095961;27;45407;-71
2023/11/28 00:24:22;;;;;;;;;4.00;2.00;;;;;;;;5091954;27;45481;-68
2023/11/28 00:26:47;;;;;;;;;3.67;2.00;;;;;;;;5096642;27;45291;-71
2023/11/28 00:29:13;;;;;;;;;2.33;2.00;;;;;;;;5092557;27;45452;-71
2023/11/28 00:31:40;;;;;;;;;3.00;2.00;;;;;;;;5096085;27;45503;-71
2023/11/28 00:34:05;;;;;;;;;3.00;2.00;;;;;;;;5077797;27;45538;-68
2023/11/28 00:36:30;;;;;;;;;2.00;1.00;;;;;;;;5095993;27;45622;-69
2023/11/28 00:38:56;;;;;;;;;1.00;1.00;;;;;;;;5095969;27;46320;-68
2023/11/28 00:41:23;;;;;;;;;1.00;1.00;;;;;;;;5096892;27;45433;-68
2023/11/28 00:43:49;;;;;;;;;3.25;2.00;;;;;;;;5096681;27;45242;-70
2023/11/28 00:46:18;;;;;;;;;3.00;1.00;;;;;;;;5091000;27;45343;-70
2023/11/28 00:48:43;;;;;;;;;1.00;1.00;;;;;;;;5096084;27;46451;-68
2023/11/28 00:51:08;;;;;;;;;1.00;1.00;;;;;;;;5095015;27;45469;-69
2023/11/28 00:53:33;;;;;;;;;2.00;2.00;;;;;;;;5096274;27;45465;-71
2023/11/28 00:55:58;;;;;;;;;1.00;1.00;;;;;;;;5096305;27;45267;-68
2023/11/28 00:58:26;;;;;;;;;1.67;1.67;;;;;;;;5095891;27;45553;-68
2023/11/28 01:00:53;;;;;;;;;1.00;1.00;;;;;;;;5093009;27;45481;-70
2023/11/28 01:03:19;;;;;;;;;1.00;1.00;;;;;;;;5095535;27;45965;-70
2023/11/28 01:05:44;;;;;;;;;0.00;0.00;;;;;;;;5077256;27;45353;-68
2023/11/28 01:08:09;;;;;;;;;1.33;1.33;;;;;;;;5096415;27;45802;-68
2023/11/28 01:10:35;;;;;;;;;1.00;1.00;;;;;;;;5096465;27;45429;-70
2023/11/28 01:13:00;;;;;;;;;0.33;0.33;;;;;;;;5077756;27;45372;-68
2023/11/28 01:15:25;;;;;;;;;1.67;0.00;;;;;;;;5095783;27;45284;-68
2023/11/28 01:17:50;;;;;;;;;1.00;1.00;;;;;;;;5095707;27;45410;-71
2023/11/28 01:20:15;;;;;;;;;1.67;1.67;;;;;;;;5095649;27;45469;-70
2023/11/28 01:22:41;;;;;;;;;1.00;1.00;;;;;;;;5095007;27;45855;-68
2023/11/28 01:25:06;;;;;;;;;1.00;1.00;;;;;;;;5096117;27;45458;-69
2023/11/28 01:27:31;;;;;;;;;0.67;0.67;;;;;;;;5091022;27;45394;-71
2023/11/28 01:29:56;;;;;;;;;1.33;1.00;;;;;;;;5095891;27;45365;-68
2023/11/28 01:32:22;;;;;;;;;0.67;0.00;;;;;;;;5095470;27;45537;-68
2023/11/28 01:34:47;;;;;;;;;3.00;0.00;;;;;;;;5096599;27;45440;-68
2023/11/28 01:37:13;;;;;;;;;1.00;1.00;;;;;;;;5089278;27;46464;-70
2023/11/28 01:39:39;;;;;;;;;1.00;1.00;;;;;;;;5095720;27;45459;-68
2023/11/28 01:42:04;;;;;;;;;1.00;1.00;;;;;;;;5096440;27;47003;-70
2023/11/28 01:44:29;;;;;;;;;1.00;1.00;;;;;;;;5092098;27;45341;-71
2023/11/28 01:46:54;;;;;;;;;2.33;2.00;;;;;;;;5097493;27;46291;-68
2023/11/28 01:49:20;;;;;;;;;2.00;1.00;;;;;;;;5080706;27;45302;-68
2023/11/28 01:51:45;;;;;;;;;2.00;2.00;;;;;;;;5098757;27;45467;-68
2023/11/28 01:54:10;;;;;;;;;1.00;1.00;;;;;;;;5097332;27;45402;-68
2023/11/28 01:56:36;;;;;;;;;2.00;1.00;;;;;;;;5098347;27;45556;-71
2023/11/28 01:59:03;;;;;;;;;4.67;2.00;;;;;;;;5093259;27;45481;-68
2023/11/28 02:01:29;;;;;;;;;4.00;2.00;;;;;;;;5098212;27;46907;-68
2023/11/28 02:03:54;;;;;;;;;2.00;1.00;;;;;;;;5098384;27;45440;-70
2023/11/28 02:06:19;;;;;;;;;2.00;2.00;;;;;;;;5098209;27;45524;-68
2023/11/28 02:08:45;;;;;;;;;3.00;2.00;;;;;;;;5097553;27;45347;-72
2023/11/28 02:11:10;;;;;;;;;4.50;3.00;;;;;;;;5098995;27;45345;-69
2023/11/28 02:13:35;;;;;;;;;2.00;2.00;;;;;;;;5099503;27;45137;-70
2023/11/28 02:16:14;;;;;;;;;1.00;1.00;;;;;;;;5098869;27;45448;-68
2023/11/28 02:18:40;;;;;;;;;3.00;2.00;;;;;;;;5096305;27;45460;-68
2023/11/28 02:21:06;;;;;;;;;3.00;2.00;;;;;;;;5098671;27;45267;-71
2023/11/28 02:23:32;;;;;;;;;3.00;3.00;;;;;;;;5097852;27;45484;-70
2023/11/28 02:26:02;;;;;;;;;3.50;2.00;;;;;;;;5096013;27;45417;-68
2023/11/28 02:28:27;;;;;;;;;2.00;2.00;;;;;;;;5096130;27;45430;-68
2023/11/28 02:30:54;;;;;;;;;2.00;2.00;;;;;;;;5094930;27;45561;-68
2023/11/28 02:33:19;;;;;;;;;2.00;2.00;;;;;;;;5098627;27;45254;-72
2023/11/28 02:35:45;;;;;;;;;2.50;2.50;;;;;;;;5097879;27;46360;-70
2023/11/28 02:38:11;;;;;;;;;2.00;2.00;;;;;;;;5098835;27;45337;-68
2023/11/28 02:40:36;;;;;;;;;2.00;2.00;;;;;;;;5098526;27;45496;-69
2023/11/28 02:43:01;;;;;;;;;2.00;2.00;;;;;;;;5099073;27;45420;-71
2023/11/28 02:45:27;;;;;;;;;4.00;1.67;;;;;;;;5097907;27;47311;-68
2023/11/28 02:47:52;;;;;;;;;1.33;1.00;;;;;;;;5098740;27;45500;-69
2023/11/28 02:50:17;;;;;;;;;3.00;3.00;;;;;;;;5098294;27;45353;-68
2023/11/28 02:52:42;;;;;;;;;5.50;3.00;;;;;;;;5097481;27;45715;-68
2023/11/28 02:55:08;;;;;;;;;2.25;2.00;;;;;;;;5097933;27;45840;-68
2023/11/28 02:57:33;;;;;;;;;4.33;2.00;;;;;;;;5096434;27;45414;-68
2023/11/28 02:59:59;;;;;;;;;3.00;3.00;;;;;;;;5097398;27;45696;-71
2023/11/28 03:02:24;;;;;;;;;3.00;3.00;;;;;;;;5098583;27;45369;-69
2023/11/28 03:04:49;;;;;;;;;2.67;2.67;;;;;;;;5095010;27;46048;-70
2023/11/28 03:07:14;;;;;;;;;6.00;3.00;;;;;;;;5097995;27;45514;-69
2023/11/28 03:09:42;;;;;;;;;5.00;5.00;;;;;;;;5079988;27;45413;-72
2023/11/28 03:12:10;;;;;;;;;2.67;1.00;;;;;;;;5098055;27;45553;-67
2023/11/28 03:14:35;;;;;;;;;3.00;3.00;;;;;;;;5096800;27;45697;-67
2023/11/28 03:17:01;;;;;;;;;3.00;3.00;;;;;;;;5097526;27;45457;-68
2023/11/28 03:19:26;;;;;;;;;4.00;4.00;;;;;;;;5098172;27;45253;-68
2023/11/28 03:21:51;;;;;;;;;4.75;4.75;;;;;;;;5095234;27;45298;-68
2023/11/28 03:24:17;;;;;;;;;6.75;4.00;;;;;;;;5097713;27;46409;-68
2023/11/28 03:26:42;;;;;;;;;7.00;3.00;;;;;;;;5097374;27;45659;-68
2023/11/28 03:29:07;;;;;;;;;2.75;2.25;;;;;;;;5093483;27;45872;-68
2023/11/28 03:31:33;;;;;;;;;4.50;4.25;;;;;;;;5094951;27;45952;-70
2023/11/28 03:33:58;;;;;;;;;6.25;4.00;;;;;;;;5092877;27;47138;-69
2023/11/28 03:36:23;;;;;;;;;3.00;3.00;;;;;;;;5096628;27;45258;-72
2023/11/28 03:38:49;;;;;;;;;4.00;4.00;;;;;;;;5097300;27;45433;-70
2023/11/28 03:41:14;;;;;;;;;5.50;3.00;;;;;;;;5096587;27;45560;-71
2023/11/28 03:43:40;;;;;;;;;5.00;5.00;;;;;;;;5097262;27;46953;-67
2023/11/28 03:46:05;;;;;;;;;7.25;3.75;;;;;;;;5097213;27;45526;-68
2023/11/28 03:48:30;;;;;;;;;2.00;2.00;;;;;;;;5097397;27;45164;-72
2023/11/28 03:50:55;;;;;;;;;7.00;6.00;;;;;;;;5097019;27;46346;-68
2023/11/28 03:53:20;;;;;;;;;5.75;3.75;;;;;;;;5091083;27;45561;-71
2023/11/28 03:55:46;;;;;;;;;8.50;4.00;;;;;;;;5097187;27;45323;-68
2023/11/28 03:58:11;;;;;;;;;6.75;4.00;;;;;;;;5096277;27;45493;-68
2023/11/28 04:00:36;;;;;;;;;7.50;6.00;;;;;;;;5097084;27;45584;-68
2023/11/28 04:03:01;;;;;;;;;5.75;5.75;;;;;;;;5097154;27;46532;-68
2023/11/28 04:05:26;;;;;;;;;5.25;5.25;;;;;;;;5096420;27;45461;-72
2023/11/28 04:07:52;;;;;;;;;3.67;3.67;;;;;;;;5073205;27;45619;-71
2023/11/28 04:10:17;;;;;;;;;4.00;4.00;;;;;;;;5095955;27;45431;-68
2023/11/28 04:12:42;;;;;;;;;9.25;6.00;;;;;;;;5096789;27;45701;-70
2023/11/28 04:15:08;;;;;;;;;7.50;5.50;;;;;;;;5095246;27;45337;-68
2023/11/28 04:17:33;;;;;;;;;4.50;4.50;;;;;;;;5096297;27;45275;-68
2023/11/28 04:19:58;;;;;;;;;4.50;4.25;;;;;;;;5096713;27;45622;-68
2023/11/28 04:22:24;;;;;;;;;6.50;4.00;;;;;;;;5096277;27;46272;-68
2023/11/28 04:24:49;;;;;;;;;6.00;3.50;;;;;;;;5096824;27;45291;-70
2023/11/28 04:27:14;;;;;;;;;8.75;4.50;;;;;;;;5095794;27;45363;-68
2023/11/28 04:29:40;;;;;;;;;4.75;3.25;;;;;;;;5094604;27;45407;-68
2023/11/28 04:32:05;;;;;;;;;4.25;4.25;;;;;;;;5094630;27;46140;-68
2023/11/28 04:34:30;;;;;;;;;6.25;6.25;;;;;;;;5096633;27;46882;-68
2023/11/28 04:36:56;;;;;;;;;2.75;2.75;;;;;;;;5078088;27;45513;-68
2023/11/28 04:39:21;;;;;;;;;4.67;2.67;;;;;;;;5096955;27;45385;-68
2023/11/28 04:41:47;;;;;;;;;3.00;3.00;;;;;;;;5077985;27;47858;-69
2023/11/28 04:44:12;;;;;;;;;3.00;3.00;;;;;;;;5096529;27;45371;-68
2023/11/28 04:46:38;;;;;;;;;2.33;2.33;;;;;;;;5094583;27;45410;-68
2023/11/28 04:49:03;;;;;;;;;3.00;3.00;;;;;;;;5096684;27;45255;-68
2023/11/28 04:51:28;;;;;;;;;3.33;2.00;;;;;;;;5096164;27;45664;-68
2023/11/28 04:53:54;;;;;;;;;2.67;2.00;;;;;;;;5096397;27;45419;-69
2023/11/28 04:56:19;;;;;;;;;3.00;3.00;;;;;;;;5092918;27;45845;-69
2023/11/28 04:58:44;;;;;;;;;4.00;2.00;;;;;;;;5077920;27;45489;-73
2023/11/28 05:01:10;;;;;;;;;2.00;2.00;;;;;;;;5090575;27;45718;-68
2023/11/28 05:03:35;;;;;;;;;2.00;1.67;;;;;;;;5091821;27;45536;-68
2023/11/28 05:06:00;;;;;;;;;1.00;1.00;;;;;;;;5095754;27;45367;-68
2023/11/28 05:08:25;;;;;;;;;3.33;2.00;;;;;;;;5095520;27;45590;-69
2023/11/28 05:10:51;;;;;;;;;1.00;1.00;;;;;;;;5093246;27;46734;-67
2023/11/28 05:13:22;;;;;;;;;2.00;2.00;;;;;;;;5096635;27;45164;-70
2023/11/28 05:15:47;;;;;;;;;2.67;2.00;;;;;;;;5092769;27;45343;-72
2023/11/28 05:18:12;;;;;;;;;3.00;2.00;;;;;;;;5096723;27;45206;-68
2023/11/28 05:20:37;;;;;;;;;2.33;2.33;;;;;;;;5095052;27;45598;-69
2023/11/28 05:23:03;;;;;;;;;1.00;1.00;;;;;;;;5094217;27;45479;-68
2023/11/28 05:25:29;;;;;;;;;2.67;2.00;;;;;;;;5096076;27;45492;-70
2023/11/28 05:27:54;;;;;;;;;1.33;1.33;;;;;;;;5096518;27;45417;-72
2023/11/28 05:30:19;;;;;;;;;1.33;1.33;;;;;;;;5099325;27;46507;-70
2023/11/28 05:32:44;;;;;;;;;3.00;0.33;;;;;;;;5096987;27;45457;-68
2023/11/28 05:35:10;;;;;;;;;1.67;1.00;;;;;;;;5097805;27;45460;-69
2023/11/28 05:37:35;;;;;;;;;1.00;1.00;;;;;;;;5098489;27;45401;-68
2023/11/28 05:40:03;;;;;;;;;4.00;2.00;;;;;;;;5098537;27;45761;-68
2023/11/28 05:42:30;;;;;;;;;4.33;1.67;;;;;;;;5098613;27;45646;-70
2023/11/28 05:44:55;;;;;;;;;2.00;2.00;;;;;;;;5099321;27;45340;-70
2023/11/28 05:47:21;;;;;;;;;1.33;1.33;;;;;;;;5099464;27;45424;-68
2023/11/28 05:49:46;;;;;;;;;4.33;2.00;;;;;;;;5099123;27;45858;-68
2023/11/28 05:52:11;;;;;;;;;3.67;3.00;;;;;;;;5082946;27;45441;-68
2023/11/28 05:54:36;;;;;;;;;4.00;2.75;;;;;;;;5064471;27;45419;-68
2023/11/28 05:57:02;;;;;;;;;3.00;2.00;;;;;;;;5080280;27;45613;-69
2023/11/28 05:59:27;;;;;;;;;2.00;2.00;;;;;;;;5081628;27;45805;-68
2023/11/28 06:02:00;;;;;;;;;2.00;2.00;;;;;;;;5082023;27;46468;-68
2023/11/28 06:04:25;;;;;;;;;7.00;4.25;;;;;;;;5081512;27;45393;-71
2023/11/28 06:06:50;;;;;;;;;6.00;2.25;;;;;;;;5077044;27;45465;-68
2023/11/28 06:09:16;;;;;;;;;4.25;3.00;;;;;;;;5080690;27;45564;-71
2023/11/28 06:11:41;;;;;;;;;5.00;4.25;;;;;;;;5071936;27;45572;-68
2023/11/28 06:14:06;;;;;;;;;3.00;3.00;;;;;;;;5076105;28;45446;-68
2023/11/28 06:16:31;;;;;;;;;4.67;4.67;;;;;;;;5078789;28;45233;-68
2023/11/28 06:18:57;;;;;;;;;5.00;3.00;;;;;;;;5074449;27;46658;-68
2023/11/28 06:21:22;;;;;;;;;5.00;3.00;;;;;;;;5069807;28;45525;-68
2023/11/28 06:23:47;;;;;;;;;5.00;5.00;;;;;;;;5076219;28;45884;-71
2023/11/28 06:26:12;;;;;;;;;3.33;3.33;;;;;;;;5078189;28;45448;-68
2023/11/28 06:28:37;;;;;;;;;3.00;3.00;;;;;;;;5078260;27;46515;-68
2023/11/28 06:31:03;;;;;;;;;6.00;3.00;;;;;;;;5076855;28;45502;-68
2023/11/28 06:33:28;;;;;;;;;5.75;5.75;;;;;;;;5076937;27;45482;-69
2023/11/28 06:35:53;;;;;;;;;6.00;6.00;;;;;;;;5077822;28;46431;-68
2023/11/28 06:38:18;;;;;;;;;6.00;3.00;;;;;;;;5076969;28;45471;-68
2023/11/28 06:40:44;;;;;;;;;6.67;5.33;;;;;;;;5075466;27;45375;-69
2023/11/28 06:43:10;;;;;;;;;6.00;6.00;;;;;;;;5079228;27;45420;-72
2023/11/28 06:45:35;;;;;;;;;5.25;5.25;;;;;;;;5072773;27;45448;-68
2023/11/28 06:48:01;;;;;;;;;5.00;5.00;;;;;;;;5074343;28;47453;-70
2023/11/28 06:50:26;;;;;;;;;9.33;7.00;;;;;;;;5077493;27;45441;-69
2023/11/28 06:52:51;;;;;;;;;3.67;3.67;;;;;;;;5085450;27;45493;-70
2023/11/28 06:55:16;;;;;;;;;11.33;8.00;;;;;;;;5090353;27;45196;-69
2023/11/28 06:57:41;;;;;;;;;6.00;6.00;;;;;;;;5087215;27;46586;-69
2023/11/28 07:00:07;;;;;;;;;9.00;7.00;;;;;;;;5083924;27;45719;-69
2023/11/28 07:02:33;;;;;;;;;7.00;6.00;;;;;;;;5087491;27;45598;-70
2023/11/28 07:04:58;;;;;;;;;7.50;6.75;;;;;;;;5084784;27;45379;-69
2023/11/28 07:07:23;;;;;;;;;6.00;6.00;;;;;;;;5090459;27;45485;-70
2023/11/28 07:09:49;;;;;;;;;6.00;6.00;;;;;;;;5070734;27;45310;-71
2023/11/28 07:12:14;;;;;;;;;6.00;6.00;;;;;;;;5089706;27;45446;-69
2023/11/28 07:14:39;;;;;;;;;6.25;6.25;;;;;;;;5086328;27;45290;-69
2023/11/28 07:17:05;;;;;;;;;7.00;7.00;;;;;;;;5097828;27;46271;-71
2023/11/28 07:19:30;;;;;;;;;6.00;6.00;;;;;;;;5092894;27;45461;-68
2023/11/28 07:21:55;;;;;;;;;10.67;7.67;;;;;;;;5086180;27;46407;-68
2023/11/28 07:24:21;;;;;;;;;14.25;8.75;;;;;;;;5095485;27;45469;-68
2023/11/28 07:26:46;;;;;;;;;12.67;8.67;;;;;;;;5092273;27;46409;-68
2023/11/28 07:29:15;;;;;;;;;8.00;8.00;;;;;;;;5093412;27;45972;-71
2023/11/28 07:31:40;;;;;;;;;9.00;7.00;;;;;;;;5090952;27;45511;-72
2023/11/28 07:34:06;;;;;;;;;5.25;5.00;;;;;;;;5094345;27;45468;-72
2023/11/28 07:36:31;;;;;;;;;9.33;9.33;;;;;;;;5094010;27;45550;-72
2023/11/28 07:38:56;;;;;;;;;15.00;8.00;;;;;;;;5093179;27;45590;-72
2023/11/28 07:41:22;;;;;;;;;6.50;6.50;;;;;;;;5087614;27;45466;-73
2023/11/28 07:43:48;;;;;;;;;7.50;6.00;;;;;;;;5091961;27;45574;-72
2023/11/28 07:46:13;;;;;;;;;6.50;6.50;;;;;;;;5090556;27;46757;-72
2023/11/28 07:48:39;;;;;;;;;8.00;7.25;;;;;;;;5092497;27;46724;-73
2023/11/28 07:51:05;;;;;;;;;12.00;10.50;;;;;;;;5090267;27;45621;-72
2023/11/28 07:53:30;;;;;;;;;7.00;7.00;;;;;;;;5073818;27;45490;-73
2023/11/28 07:55:55;;;;;;;;;9.00;7.00;;;;;;;;5090569;27;47808;-73
2023/11/28 07:58:22;;;;;;;;;13.00;11.25;;;;;;;;5088909;27;45703;-72
2023/11/28 08:00:47;;;;;;;;;11.25;8.00;;;;;;;;5085582;27;45589;-73
2023/11/28 08:03:12;;;;;;;;;10.00;7.75;;;;;;;;5090060;27;45660;-72
2023/11/28 08:05:37;;;;;;;;;12.67;8.33;;;;;;;;5090440;27;45744;-69
2023/11/28 08:08:03;;;;;;;;;11.00;8.67;;;;;;;;5095413;27;45591;-68
2023/11/28 08:10:28;;;;;;;;;10.75;10.75;;;;;;;;5090918;27;45890;-69
2023/11/28 08:12:53;;;;;;;;;10.00;10.00;;;;;;;;5084886;27;45847;-68
2023/11/28 08:15:18;;;;;;;;;8.75;8.75;;;;;;;;5085249;27;45708;-68
2023/11/28 08:17:43;;;;;;;;;8.25;8.25;;;;;;;;5090782;27;45443;-68
2023/11/28 08:20:09;;;;;;;;;12.50;9.50;;;;;;;;5094479;27;46047;-68
2023/11/28 08:22:34;;;;;;;;;8.25;7.00;;;;;;;;5095004;27;45665;-68
2023/11/28 08:25:03;;;;;;;;;14.75;11.25;;;;;;;;5094876;27;46249;-68
2023/11/28 08:27:28;;;;;;;;;11.25;10.50;;;;;;;;5093679;27;45507;-68
2023/11/28 08:29:54;;;;;;;;;13.25;10.25;;;;;;;;5093615;27;45510;-67
2023/11/28 08:32:20;;;;;;;;;17.25;10.25;;;;;;;;5091101;27;45455;-69
2023/11/28 08:34:46;;;;;;;;;11.75;10.00;;;;;;;;5093154;27;45681;-68
2023/11/28 08:37:12;;;;;;;;;8.25;8.25;;;;;;;;5094330;27;45779;-69
2023/11/28 08:39:37;;;;;;;;;11.00;10.50;;;;;;;;5097164;27;45430;-70
2023/11/28 08:42:03;;;;;;;;;7.00;6.00;;;;;;;;5185828;22;45429;-68
2023/11/28 08:44:28;;;;;;;;;10.75;7.00;;;;;;;;5032984;28;45933;-68
2023/11/28 08:46:54;;;;;;;;;11.00;9.00;;;;;;;;5032898;28;46367;-68
2023/11/28 08:49:22;;;;;;;;;7.00;7.00;;;;;;;;5033918;28;45414;-68
2023/11/28 08:51:47;;;;;;;;;10.00;7.00;;;;;;;;5033848;28;45519;-69
2023/11/28 08:54:12;;;;;;;;;8.75;7.00;;;;;;;;5032793;28;45395;-69
2023/11/28 08:56:37;;;;;;;;;7.75;7.75;;;;;;;;5031976;28;45446;-68
2023/11/28 08:59:03;;;;;;;;;10.67;7.67;;;;;;;;5032969;28;45593;-68
2023/11/28 09:01:28;;;;;;;;;9.50;7.25;;;;;;;;5033004;28;46174;-68
2023/11/28 09:03:54;;;;;;;;;10.00;8.00;;;;;;;;5030439;28;46432;-70
2023/11/28 09:06:19;;;;;;;;;10.75;7.25;;;;;;;;5034115;28;45536;-69
2023/11/28 09:08:44;;;;;;;;;10.67;8.67;;;;;;;;5033499;28;45530;-69
2023/11/28 09:11:11;;;;;;;;;8.25;8.25;;;;;;;;5032815;28;45502;-69
2023/11/28 09:13:37;;;;;;;;;12.00;8.75;;;;;;;;5033286;28;46103;-69
2023/11/28 09:16:08;;;;;;;;;11.00;11.00;;;;;;;;5033671;28;45720;-68
2023/11/28 09:18:34;;;;;;;;;10.50;10.50;;;;;;;;5032632;28;45498;-71
2023/11/28 09:20:59;;;;;;;;;12.50;10.00;;;;;;;;5032984;28;45419;-68
2023/11/28 09:23:25;;;;;;;;;12.25;10.50;;;;;;;;5033742;28;47309;-70
2023/11/28 09:25:50;;;;;;;;;11.00;7.75;;;;;;;;5034376;28;45502;-68
2023/11/28 09:28:15;;;;;;;;;10.67;10.33;;;;;;;;5032548;28;45490;-69
2023/11/28 09:30:40;;;;;;;;;7.33;7.33;;;;;;;;5033480;28;45621;-69
2023/11/28 09:33:05;;;;;;;;;11.75;11.75;;;;;;;;5034020;28;45634;-69
2023/11/28 09:35:32;;;;;;;;;10.00;10.00;;;;;;;;5032961;28;45360;-70
2023/11/28 09:37:57;;;;;;;;;7.25;7.25;;;;;;;;5028811;28;45483;-68
2023/11/28 09:40:23;;;;;;;;;7.75;7.75;;;;;;;;5033317;28;45423;-68
2023/11/28 09:42:51;;;;;;;;;10.50;9.25;;;;;;;;5021872;28;47395;-69
2023/11/28 09:45:18;;;;;;;;;13.75;11.75;;;;;;;;5013243;28;45487;-68
2023/11/28 09:47:44;;;;;;;;;12.00;9.50;;;;;;;;5013763;28;45439;-68
2023/11/28 09:50:12;;;;;;;;;12.25;8.25;;;;;;;;5013534;28;45892;-67
2023/11/28 09:52:40;;;;;;;;;11.00;8.75;;;;;;;;5012681;28;46635;-67
2023/11/28 09:55:05;;;;;;;;;11.00;11.00;;;;;;;;5018222;28;45460;-68
2023/11/28 09:57:34;;;;;;;;;10.50;10.50;;;;;;;;5015258;28;45492;-68
2023/11/28 09:59:59;;;;;;;;;8.00;8.00;;;;;;;;5013107;28;45420;-68
2023/11/28 10:02:28;;;;;;;;;14.25;12.75;;;;;;;;5016043;28;46701;-68
2023/11/28 10:04:53;;;;;;;;;16.75;11.50;;;;;;;;5012477;28;45499;-69
2023/11/28 10:07:20;;;;;;;;;9.50;9.50;;;;;;;;5012531;28;45451;-68
2023/11/28 10:09:49;;;;;;;;;13.00;11.25;;;;;;;;5010115;28;45642;-68
2023/11/28 10:12:15;;;;;;;;;12.00;11.00;;;;;;;;5023456;28;46691;-69
2023/11/28 10:14:41;;;;;;;;;12.75;11.00;;;;;;;;5015620;28;45457;-68
2023/11/28 10:17:08;;;;;;;;;9.75;8.25;;;;;;;;5017966;28;45283;-70
2023/11/28 10:19:34;;;;;;;;;8.00;8.00;;;;;;;;5014434;28;45293;-68
2023/11/28 10:22:02;;;;;;;;;11.25;8.75;;;;;;;;5016653;28;46742;-71
2023/11/28 10:24:27;;;;;;;;;13.00;10.75;;;;;;;;5019103;28;45530;-69
2023/11/28 10:26:55;;;;;;;;;12.75;11.75;;;;;;;;5016690;28;45471;-68
2023/11/28 10:29:21;;;;;;;;;8.00;8.00;;;;;;;;5016054;28;45535;-69
2023/11/28 10:31:46;;;;;;;;;7.50;7.50;;;;;;;;5016093;28;47664;-69
2023/11/28 10:34:14;;;;;;;;;13.25;11.25;;;;;;;;5016268;28;45468;-69
2023/11/28 10:36:40;;;;;;;;;18.75;16.75;;;;;;;;5016080;28;45632;-68
2023/11/28 10:39:05;;;;;;;;;12.00;11.75;;;;;;;;5015820;28;45471;-69
2023/11/28 10:41:32;;;;;;;;;12.25;9.25;;;;;;;;5015524;28;46567;-71
2023/11/28 10:43:58;;;;;;;;;9.00;7.00;;;;;;;;5030111;28;45416;-69
2023/11/28 10:46:24;;;;;;;;;7.25;7.00;;;;;;;;5031176;28;45549;-69
2023/11/28 10:48:49;;;;;;;;;9.75;7.00;;;;;;;;5036376;28;45275;-69
2023/11/28 10:51:14;;;;;;;;;6.25;6.25;;;;;;;;5034855;28;45406;-70
2023/11/28 10:53:42;;;;;;;;;6.25;6.25;;;;;;;;5032834;28;45272;-68
2023/11/28 10:56:09;;;;;;;;;9.75;9.75;;;;;;;;5031328;28;45498;-69
2023/11/28 10:58:36;;;;;;;;;8.25;7.25;;;;;;;;5035769;28;45485;-69
2023/11/28 11:01:02;;;;;;;;;7.00;7.00;;;;;;;;5034693;28;46623;-68
2023/11/28 11:03:28;;;;;;;;;10.25;8.00;;;;;;;;5035731;28;45273;-68
2023/11/28 11:05:53;;;;;;;;;8.00;8.00;;;;;;;;5036008;28;45605;-68
2023/11/28 11:08:18;;;;;;;;;10.00;8.50;;;;;;;;5032952;28;45507;-69
2023/11/28 11:10:44;;;;;;;;;9.00;8.75;;;;;;;;5035067;28;45506;-68
2023/11/28 11:13:09;;;;;;;;;11.00;7.50;;;;;;;;5025973;28;45491;-68
2023/11/28 11:15:40;;;;;;;;;8.25;7.25;;;;;;;;5028776;28;45636;-68
2023/11/28 11:18:25;;;;;;;;;9.75;8.50;;;;;;;;5031409;28;45568;-68
2023/11/28 11:20:53;;;;;;;;;9.00;8.00;;;;;;;;5034641;28;46539;-70
2023/11/28 11:23:18;;;;;;;;;8.50;8.50;;;;;;;;5031796;28;45512;-68
2023/11/28 11:25:50;;;;;;;;;9.50;8.00;;;;;;;;5035825;28;45641;-68
2023/11/28 11:28:15;;;;;;;;;12.50;8.75;;;;;;;;5035510;28;45475;-67
2023/11/28 11:30:42;;;;;;;;;5.33;4.67;;;;;;;;5034875;28;46559;-68
2023/11/28 11:33:10;;;;;;;;;11.00;6.25;;;;;;;;5035165;28;45476;-68
2023/11/28 11:35:57;;;;;;;;;8.50;7.25;;;;;;;;5035046;28;45756;-68
2023/11/28 11:38:29;;;;;;;;;6.50;6.50;;;;;;;;5030008;28;45522;-69
2023/11/28 11:40:57;;;;;;;;;7.25;6.50;;;;;;;;5033875;28;46292;-70
2023/11/28 11:43:23;;;;;;;;;9.75;6.50;;;;;;;;5034721;28;45482;-69
2023/11/28 11:45:48;;;;;;;;;9.00;8.50;;;;;;;;5032067;28;45509;-70
2023/11/28 11:48:22;;;;;;;;;7.25;7.25;;;;;;;;5028013;28;45466;-69
2023/11/28 11:50:48;;;;;;;;;8.50;6.25;;;;;;;;5027202;28;45782;-69
2023/11/28 11:53:13;;;;;;;;;6.75;6.75;;;;;;;;5032269;28;45597;-70
2023/11/28 11:55:44;;;;;;;;;7.25;7.25;;;;;;;;5027393;28;45443;-72
2023/11/28 11:58:09;;;;;;;;;5.50;5.50;;;;;;;;5034430;28;45427;-72
2023/11/28 12:00:35;;;;;;;;;8.00;6.00;;;;;;;;5017744;28;47488;-68
2023/11/28 12:03:00;;;;;;;;;7.00;4.00;;;;;;;;5035000;28;45594;-68
2023/11/28 12:05:25;;;;;;;;;6.67;4.00;;;;;;;;5034788;28;45280;-71
2023/11/28 12:07:52;;;;;;;;;8.50;7.00;;;;;;;;5035319;28;45555;-68
2023/11/28 12:10:17;;;;;;;;;6.33;5.33;;;;;;;;5035129;28;46453;-68
2023/11/28 12:12:43;;;;;;;;;8.75;7.00;;;;;;;;5035955;28;45387;-71
2023/11/28 12:15:10;;;;;;;;;8.67;6.00;;;;;;;;5035907;28;45447;-69
2023/11/28 12:17:37;;;;;;;;;5.50;4.00;;;;;;;;5034993;28;45483;-69
2023/11/28 12:20:04;;;;;;;;;6.25;5.50;;;;;;;;5034311;28;46686;-69
2023/11/28 12:22:30;;;;;;;;;7.67;5.33;;;;;;;;5034612;28;45676;-68
2023/11/28 12:24:55;;;;;;;;;4.00;4.00;;;;;;;;5035696;28;46877;-69
2023/11/28 12:27:20;;;;;;;;;9.00;8.00;;;;;;;;5036237;28;45404;-71
2023/11/28 12:29:46;;;;;;;;;7.00;5.00;;;;;;;;5036524;28;46178;-69
2023/11/28 12:32:11;;;;;;;;;7.00;6.00;;;;;;;;5034968;28;45434;-69
2023/11/28 12:34:39;;;;;;;;;6.25;4.00;;;;;;;;5036057;28;45479;-68
2023/11/28 12:37:04;;;;;;;;;6.67;6.00;;;;;;;;5035654;28;45474;-70
2023/11/28 12:39:29;;;;;;;;;7.25;7.25;;;;;;;;5035164;28;46641;-70
2023/11/28 12:41:55;;;;;;;;;6.67;6.67;;;;;;;;5035710;28;45448;-70
2023/11/28 12:44:22;;;;;;;;;8.25;7.00;;;;;;;;5035580;28;45436;-70
2023/11/28 12:46:49;;;;;;;;;7.00;7.00;;;;;;;;5034177;28;45490;-72
2023/11/28 12:49:15;;;;;;;;;8.25;8.25;;;;;;;;5033373;28;46609;-69
2023/11/28 12:51:41;;;;;;;;;3.50;3.50;;;;;;;;5035326;28;45562;-68
2023/11/28 12:54:07;;;;;;;;;7.00;4.50;;;;;;;;5036117;28;45353;-68
2023/11/28 12:56:33;;;;;;;;;6.75;4.50;;;;;;;;5033886;28;45689;-71
2023/11/28 12:58:59;;;;;;;;;4.00;4.00;;;;;;;;5033868;28;46469;-68
2023/11/28 13:01:27;;;;;;;;;8.00;4.00;;;;;;;;5032705;28;45477;-71
2023/11/28 13:03:52;;;;;;;;;7.00;5.50;;;;;;;;5033430;28;45400;-71
2023/11/28 13:06:18;;;;;;;;;7.25;5.50;;;;;;;;5032884;28;45383;-69
2023/11/28 13:08:43;;;;;;;;;4.00;4.00;;;;;;;;5033164;28;45881;-69
2023/11/28 13:11:08;;;;;;;;;4.00;4.00;;;;;;;;5038481;28;45702;-68
2023/11/28 13:13:33;;;;;;;;;7.00;7.00;;;;;;;;5015003;28;45509;-69
2023/11/28 13:16:01;;;;;;;;;4.00;4.00;;;;;;;;5032112;28;45427;-69
2023/11/28 13:18:26;;;;;;;;;8.00;6.00;;;;;;;;5033499;28;47138;-68
2023/11/28 13:20:52;;;;;;;;;11.00;7.67;;;;;;;;5034241;28;45410;-69
2023/11/28 13:23:17;;;;;;;;;7.67;7.67;;;;;;;;5033849;28;45307;-71
2023/11/28 13:25:42;;;;;;;;;6.00;6.00;;;;;;;;5030643;28;45328;-70
2023/11/28 13:28:07;;;;;;;;;4.67;4.67;;;;;;;;5033639;28;46582;-70
2023/11/28 13:30:33;;;;;;;;;4.00;4.00;;;;;;;;5032854;28;45515;-70
2023/11/28 13:32:58;;;;;;;;;5.67;3.00;;;;;;;;5032891;28;45431;-69
2023/11/28 13:35:25;;;;;;;;;4.50;3.25;;;;;;;;5034050;28;45526;-69
2023/11/28 13:37:50;;;;;;;;;3.50;3.50;;;;;;;;5032787;28;47364;-68
2023/11/28 13:40:15;;;;;;;;;5.00;4.50;;;;;;;;5029015;28;45502;-68
2023/11/28 13:42:41;;;;;;;;;4.00;4.00;;;;;;;;5024169;28;45539;-69
2023/11/28 13:45:07;;;;;;;;;6.00;3.00;;;;;;;;5016565;28;46718;-69
2023/11/28 13:47:32;;;;;;;;;8.00;5.50;;;;;;;;5014407;28;46590;-69
2023/11/28 13:49:57;;;;;;;;;7.00;7.00;;;;;;;;5013595;28;45464;-69
2023/11/28 13:52:23;;;;;;;;;8.75;6.00;;;;;;;;5016219;28;45514;-72
2023/11/28 13:54:48;;;;;;;;;4.67;4.67;;;;;;;;5014339;28;46321;-71
2023/11/28 13:57:13;;;;;;;;;7.00;6.00;;;;;;;;5021886;28;47196;-69
2023/11/28 13:59:39;;;;;;;;;7.75;6.25;;;;;;;;5016919;28;45500;-69
2023/11/28 14:02:05;;;;;;;;;5.00;5.00;;;;;;;;5016780;28;45481;-69
2023/11/28 14:04:31;;;;;;;;;7.25;6.50;;;;;;;;5015315;28;45538;-69
2023/11/28 14:06:56;;;;;;;;;4.00;4.00;;;;;;;;5015869;28;47595;-70
2023/11/28 14:09:22;;;;;;;;;7.00;4.00;;;;;;;;5015906;28;45676;-69
2023/11/28 14:11:48;;;;;;;;;4.00;2.00;;;;;;;;5017347;28;45483;-70
2023/11/28 14:14:13;;;;;;;;;3.00;3.00;;;;;;;;5016391;28;45913;-70
2023/11/28 14:16:38;;;;;;;;;4.00;3.00;;;;;;;;5012280;28;45454;-69
2023/11/28 14:19:04;;;;;;;;;7.00;3.67;;;;;;;;5015680;28;45487;-69
2023/11/28 14:21:30;;;;;;;;;3.50;3.50;;;;;;;;5016169;28;45514;-70
2023/11/28 14:23:55;;;;;;;;;2.75;2.75;;;;;;;;5016195;28;45306;-69
2023/11/28 14:26:20;;;;;;;;;5.75;2.50;;;;;;;;5016238;28;45460;-69
2023/11/28 14:28:45;;;;;;;;;4.00;3.00;;;;;;;;5016444;28;45468;-70
2023/11/28 14:31:10;;;;;;;;;2.67;2.67;;;;;;;;5016310;28;45609;-69